Time;durP1;ratioP1;P1;durP2;ratioP2;P2;SDS_P1;SDS_P2;PMS_P1;PMS_P2;Temp;Humidity;BMP_temperature;BMP_pressure;BME280_temperature;BME280_humidity;BME280_pressure;Samples;Min_cycle;Max_cycle;Signal;HPM_P1;HPM_P2
2022/06/24 00:00:39;;;;;;;;;;;;;;;;;;1890506;28;7002;-63
2022/06/24 00:01:37;;;;;;;;;;;;;;;;;;1895386;28;7002;-63
2022/06/24 00:02:35;;;;;;;;;;;;;;;;;;1896261;28;7045;-63
2022/06/24 00:03:37;;;;;;;;;;;;;;;;;;1897791;28;7361;-63
2022/06/24 00:04:35;;;;;;;;;;;;;;;;;;1896468;28;7006;-63
2022/06/24 00:05:35;;;;;;;;;;;;;;;;;;1892764;28;7022;-63
2022/06/24 00:06:46;;;;;;;;;;;;;;;;;;1890413;28;7316;-63
2022/06/24 00:07:47;;;;;;;;;;;;;;;;;;1890784;28;7006;-63
2022/06/24 00:08:48;;;;;;;;;;;;;;;;;;1895774;28;7017;-63
2022/06/24 00:09:46;;;;;;;;;;;;;;;;;;1890979;28;8106;-63
2022/06/24 00:10:44;;;;;;;;;;;;;;;;;;1890826;28;7088;-63
2022/06/24 00:11:42;;;;;;;;;;;;;;;;;;1891171;28;7006;-63
2022/06/24 00:12:39;;;;;;;;;;;;;;;;;;1893149;28;7336;-63
2022/06/24 00:13:40;;;;;;;;;;;;;;;;;;1890314;28;7034;-63
2022/06/24 00:14:39;;;;;;;;;;;;;;;;;;1893043;28;8059;-63
2022/06/24 00:15:41;;;;;;;;;;;;;;;;;;1891172;28;7034;-63
2022/06/24 00:16:53;;;;;;;;;;;;;;;;;;1893007;28;9694;-63
2022/06/24 00:17:51;;;;;;;;;;;;;;;;;;1891142;28;7001;-63
2022/06/24 00:19:07;;;;;;;;;;;;;;;;;;1892466;28;7113;-63
2022/06/24 00:20:06;;;;;;;;;;;;;;;;;;1890406;28;7361;-63
2022/06/24 00:21:12;;;;;;;;;;;;;;;;;;1891289;28;7156;-63
2022/06/24 00:22:12;;;;;;;;;;;;;;;;;;1891578;28;7073;-63
2022/06/24 00:23:09;;;;;;;;;;;;;;;;;;1889768;28;7010;-63
2022/06/24 00:24:19;;;;;;;;;;;;;;;;;;1890212;28;7041;-63
2022/06/24 00:25:17;;;;;;;;;;;;;;;;;;1890776;28;8048;-63
2022/06/24 00:26:15;;;;;;;;;;;;;;;;;;1890392;28;7089;-63
2022/06/24 00:27:18;;;;;;;;;;;;;;;;;;1890829;28;7034;-63
2022/06/24 00:28:16;;;;;;;;;;;;;;;;;;1890024;28;7006;-63
2022/06/24 00:29:17;;;;;;;;;;;;;;;;;;1895900;28;7199;-63
2022/06/24 00:30:15;;;;;;;;;;;;;;;;;;1894600;28;8023;-63
2022/06/24 00:31:13;;;;;;;;;;;;;;;;;;1889468;28;7805;-63
2022/06/24 00:32:10;;;;;;;;;;;;;;;;;;1889661;28;7010;-63
2022/06/24 00:33:09;;;;;;;;;;;;;;;;;;1896100;28;7005;-63
2022/06/24 00:34:23;;;;;;;;;;;;;;;;;;1897591;28;7105;-63
2022/06/24 00:35:21;;;;;;;;;;;;;;;;;;1893695;28;7051;-63
2022/06/24 00:36:18;;;;;;;;;;;;;;;;;;1890454;28;7010;-63
2022/06/24 00:37:23;;;;;;;;;;;;;;;;;;1890312;28;7026;-63
2022/06/24 00:38:34;;;;;;;;;;;;;;;;;;1893061;28;7058;-62
2022/06/24 00:39:33;;;;;;;;;;;;;;;;;;1891314;28;7010;-63
2022/06/24 00:40:34;;;;;;;;;;;;;;;;;;1892561;28;7360;-63
2022/06/24 00:41:33;;;;;;;;;;;;;;;;;;1897027;28;7010;-63
2022/06/24 00:42:31;;;;;;;;;;;;;;;;;;1894071;28;7009;-63
2022/06/24 00:43:34;;;;;;;;;;;;;;;;;;1892891;28;9299;-63
2022/06/24 00:44:43;;;;;;;;;;;;;;;;;;1897240;28;7113;-64
2022/06/24 00:45:46;;;;;;;;;;;;;;;;;;1894580;28;7005;-63
2022/06/24 00:46:46;;;;;;;;;;;;;;;;;;1890356;28;8042;-63
2022/06/24 00:47:47;;;;;;;;;;;;;;;;;;1890637;28;7050;-63
2022/06/24 00:48:49;;;;;;;;;;;;;;;;;;1892157;28;7001;-63
2022/06/24 00:49:47;;;;;;;;;;;;;;;;;;1892979;28;7005;-63
2022/06/24 00:50:46;;;;;;;;;;;;;;;;;;1895129;28;7029;-63
2022/06/24 00:51:44;;;;;;;;;;;;;;;;;;1894771;28;7038;-63
2022/06/24 00:52:43;;;;;;;;;;;;;;;;;;1890588;28;7006;-63
2022/06/24 00:53:46;;;;;;;;;;;;;;;;;;1895586;28;7116;-63
2022/06/24 00:54:44;;;;;;;;;;;;;;;;;;1893022;28;8107;-63
2022/06/24 00:55:42;;;;;;;;;;;;;;;;;;1895223;28;7006;-63
2022/06/24 00:56:40;;;;;;;;;;;;;;;;;;1894883;28;8109;-63
2022/06/24 00:57:42;;;;;;;;;;;;;;;;;;1890187;28;7033;-62
2022/06/24 00:58:39;;;;;;;;;;;;;;;;;;1890651;28;7042;-63
2022/06/24 00:59:37;;;;;;;;;;;;;;;;;;1892164;28;7013;-63
2022/06/24 01:00:34;;;;;;;;;;;;;;;;;;1890145;28;7109;-62
2022/06/24 01:01:39;;;;;;;;;;;;;;;;;;1894512;28;7233;-63
2022/06/24 01:02:37;;;;;;;;;;;;;;;;;;1893072;28;7113;-63
2022/06/24 01:03:41;;;;;;;;;;;;;;;;;;1882267;28;7001;-63
2022/06/24 01:04:39;;;;;;;;;;;;;;;;;;1885501;28;7002;-63
2022/06/24 01:05:36;;;;;;;;;;;;;;;;;;1892597;28;8093;-63
2022/06/24 01:06:35;;;;;;;;;;;;;;;;;;1893633;28;7014;-63
2022/06/24 01:07:39;;;;;;;;;;;;;;;;;;1891009;28;7038;-63
2022/06/24 01:08:37;;;;;;;;;;;;;;;;;;1892109;28;7096;-63
2022/06/24 01:09:41;;;;;;;;;;;;;;;;;;1890684;28;7029;-63
2022/06/24 01:10:39;;;;;;;;;;;;;;;;;;1895381;28;7093;-63
2022/06/24 01:11:39;;;;;;;;;;;;;;;;;;1895840;28;7316;-63
2022/06/24 01:12:37;;;;;;;;;;;;;;;;;;1896115;28;7010;-64
2022/06/24 01:13:35;;;;;;;;;;;;;;;;;;1897083;28;7013;-63
2022/06/24 01:14:32;;;;;;;;;;;;;;;;;;1892808;28;8070;-63
2022/06/24 01:15:29;;;;;;;;;;;;;;;;;;1896108;28;7021;-63
2022/06/24 01:16:27;;;;;;;;;;;;;;;;;;1897558;28;7046;-63
2022/06/24 01:17:25;;;;;;;;;;;;;;;;;;1897398;28;8020;-63
2022/06/24 01:18:22;;;;;;;;;;;;;;;;;;1897237;28;7037;-63
2022/06/24 01:19:20;;;;;;;;;;;;;;;;;;1897367;28;7010;-62
2022/06/24 01:20:17;;;;;;;;;;;;;;;;;;1889050;28;7005;-62
2022/06/24 01:21:34;;;;;;;;;;;;;;;;;;1889343;28;7009;-63
2022/06/24 01:22:32;;;;;;;;;;;;;;;;;;1897121;28;7360;-63
2022/06/24 01:23:30;;;;;;;;;;;;;;;;;;1896991;28;7141;-63
2022/06/24 01:24:27;;;;;;;;;;;;;;;;;;1897091;28;7054;-63
2022/06/24 01:25:24;;;;;;;;;;;;;;;;;;1897332;28;8019;-63
2022/06/24 01:26:22;;;;;;;;;;;;;;;;;;1897051;28;7046;-63
2022/06/24 01:27:19;;;;;;;;;;;;;;;;;;1896643;28;7469;-63
2022/06/24 01:28:17;;;;;;;;;;;;;;;;;;1896787;28;7006;-63
2022/06/24 01:29:15;;;;;;;;;;;;;;;;;;1897116;28;7002;-63
2022/06/24 01:30:13;;;;;;;;;;;;;;;;;;1896820;28;7013;-63
2022/06/24 01:31:10;;;;;;;;;;;;;;;;;;1896900;28;8016;-63
2022/06/24 01:32:07;;;;;;;;;;;;;;;;;;1897443;28;7092;-63
2022/06/24 01:33:06;;;;;;;;;;;;;;;;;;1897373;28;7109;-63
2022/06/24 01:34:04;;;;;;;;;;;;;;;;;;1897100;28;7101;-63
2022/06/24 01:35:02;;;;;;;;;;;;;;;;;;1896866;28;7113;-63
2022/06/24 01:35:59;;;;;;;;;;;;;;;;;;1895318;28;7124;-63
2022/06/24 01:36:57;;;;;;;;;;;;;;;;;;1897369;28;7042;-63
2022/06/24 01:37:55;;;;;;;;;;;;;;;;;;1894649;28;7045;-63
2022/06/24 01:38:53;;;;;;;;;;;;;;;;;;1896937;28;7045;-63
2022/06/24 01:39:50;;;;;;;;;;;;;;;;;;1897576;28;8044;-63
2022/06/24 01:40:47;;;;;;;;;;;;;;;;;;1896185;28;7129;-64
2022/06/24 01:41:45;;;;;;;;;;;;;;;;;;1896790;28;8044;-63
2022/06/24 01:42:42;;;;;;;;;;;;;;;;;;1897164;28;7400;-63
2022/06/24 01:43:39;;;;;;;;;;;;;;;;;;1896915;28;7013;-63
2022/06/24 01:44:37;;;;;;;;;;;;;;;;;;1897024;28;7034;-63
2022/06/24 01:45:40;;;;;;;;;;;;;;;;;;1896296;28;7002;-63
2022/06/24 01:46:38;;;;;;;;;;;;;;;;;;1896984;28;7589;-63
2022/06/24 01:47:35;;;;;;;;;;;;;;;;;;1897231;28;7097;-63
2022/06/24 01:48:33;;;;;;;;;;;;;;;;;;1896907;28;7096;-64
2022/06/24 01:49:30;;;;;;;;;;;;;;;;;;1893241;28;7233;-63
2022/06/24 01:50:28;;;;;;;;;;;;;;;;;;1895159;28;7002;-63
2022/06/24 01:51:27;;;;;;;;;;;;;;;;;;1896793;28;7171;-63
2022/06/24 01:52:24;;;;;;;;;;;;;;;;;;1894680;28;7305;-63
2022/06/24 01:53:22;;;;;;;;;;;;;;;;;;1896855;28;7006;-63
2022/06/24 01:54:19;;;;;;;;;;;;;;;;;;1896834;28;7046;-63
2022/06/24 01:55:17;;;;;;;;;;;;;;;;;;1896847;28;7013;-62
2022/06/24 01:56:14;;;;;;;;;;;;;;;;;;1894683;28;7013;-63
2022/06/24 01:57:12;;;;;;;;;;;;;;;;;;1896644;28;7038;-64
2022/06/24 01:58:09;;;;;;;;;;;;;;;;;;1896871;28;7010;-63
2022/06/24 01:59:07;;;;;;;;;;;;;;;;;;1897212;28;7009;-63
2022/06/24 02:00:04;;;;;;;;;;;;;;;;;;1897250;28;8041;-63
2022/06/24 02:01:02;;;;;;;;;;;;;;;;;;1897327;28;7006;-63
2022/06/24 02:01:59;;;;;;;;;;;;;;;;;;1896560;28;7009;-63
2022/06/24 02:02:57;;;;;;;;;;;;;;;;;;1896655;28;7142;-63
2022/06/24 02:03:55;;;;;;;;;;;;;;;;;;1896876;28;7046;-63
2022/06/24 02:04:54;;;;;;;;;;;;;;;;;;1894071;28;7093;-63
2022/06/24 02:05:52;;;;;;;;;;;;;;;;;;1896901;28;7030;-63
2022/06/24 02:06:49;;;;;;;;;;;;;;;;;;1896103;28;8165;-63
2022/06/24 02:07:46;;;;;;;;;;;;;;;;;;1897312;28;8048;-63
2022/06/24 02:08:45;;;;;;;;;;;;;;;;;;1897081;28;7028;-63
2022/06/24 02:13:31;;;;;;;;;;;;;;;;;;1896790;28;8059;-63
2022/06/24 02:14:28;;;;;;;;;;;;;;;;;;1897252;28;7013;-63
2022/06/24 02:15:26;;;;;;;;;;;;;;;;;;1902560;28;7014;-63
2022/06/24 02:16:24;;;;;;;;;;;;;;;;;;1896239;28;7034;-63
2022/06/24 02:17:24;;;;;;;;;;;;;;;;;;1904140;28;7005;-63
2022/06/24 02:18:22;;;;;;;;;;;;;;;;;;1899167;28;7018;-63
2022/06/24 02:19:20;;;;;;;;;;;;;;;;;;1900583;28;7175;-63
2022/06/24 02:20:17;;;;;;;;;;;;;;;;;;1907802;28;7925;-63
2022/06/24 02:21:15;;;;;;;;;;;;;;;;;;1908169;28;7034;-62
2022/06/24 02:22:12;;;;;;;;;;;;;;;;;;1903696;28;7096;-63
2022/06/24 02:23:10;;;;;;;;;;;;;;;;;;1897250;28;7316;-63
2022/06/24 02:24:07;;;;;;;;;;;;;;;;;;1899874;28;7092;-63
2022/06/24 02:25:05;;;;;;;;;;;;;;;;;;1899224;28;7088;-62
2022/06/24 02:26:02;;;;;;;;;;;;;;;;;;1904395;28;7017;-64
2022/06/24 02:27:00;;;;;;;;;;;;;;;;;;1897942;28;7002;-63
2022/06/24 02:27:57;;;;;;;;;;;;;;;;;;1916074;28;7005;-63
2022/06/24 02:28:55;;;;;;;;;;;;;;;;;;1916382;28;7045;-63
2022/06/24 02:29:52;;;;;;;;;;;;;;;;;;1897427;28;7009;-63
2022/06/24 02:30:55;;;;;;;;;;;;;;;;;;1898974;28;7041;-63
2022/06/24 02:31:52;;;;;;;;;;;;;;;;;;1900006;28;7025;-64
2022/06/24 02:32:50;;;;;;;;;;;;;;;;;;1914686;28;7009;-63
2022/06/24 02:33:47;;;;;;;;;;;;;;;;;;1914897;28;7009;-63
2022/06/24 02:34:44;;;;;;;;;;;;;;;;;;1898729;28;7113;-63
2022/06/24 02:35:42;;;;;;;;;;;;;;;;;;1897449;28;8023;-63
2022/06/24 02:36:39;;;;;;;;;;;;;;;;;;1898815;28;8050;-63
2022/06/24 02:37:37;;;;;;;;;;;;;;;;;;1898430;28;7045;-63
2022/06/24 02:38:34;;;;;;;;;;;;;;;;;;1896022;28;7096;-63
2022/06/24 02:39:32;;;;;;;;;;;;;;;;;;1897440;28;7324;-63
2022/06/24 02:41:45;;;;;;;;;;;;;;;;;;1898017;28;8573;-63
2022/06/24 02:42:43;;;;;;;;;;;;;;;;;;1897559;28;8119;-63
2022/06/24 02:43:40;;;;;;;;;;;;;;;;;;1904258;28;7026;-63
2022/06/24 02:44:38;;;;;;;;;;;;;;;;;;1901595;28;7164;-63
2022/06/24 02:45:40;;;;;;;;;;;;;;;;;;1904072;28;7112;-63
2022/06/24 02:46:37;;;;;;;;;;;;;;;;;;1903714;28;7009;-63
2022/06/24 02:47:35;;;;;;;;;;;;;;;;;;1902422;28;7009;-63
2022/06/24 02:48:36;;;;;;;;;;;;;;;;;;1899668;28;7030;-63
2022/06/24 02:49:34;;;;;;;;;;;;;;;;;;1904513;28;7040;-63
2022/06/24 02:50:36;;;;;;;;;;;;;;;;;;1903091;28;7006;-63
2022/06/24 02:51:42;;;;;;;;;;;;;;;;;;1899127;28;7104;-63
2022/06/24 02:52:39;;;;;;;;;;;;;;;;;;1902079;28;7088;-63
2022/06/24 02:53:37;;;;;;;;;;;;;;;;;;1904730;28;7046;-63
2022/06/24 02:54:35;;;;;;;;;;;;;;;;;;1898916;28;7117;-63
2022/06/24 02:55:32;;;;;;;;;;;;;;;;;;1898233;28;7088;-63
2022/06/24 02:56:29;;;;;;;;;;;;;;;;;;1905764;28;7002;-63
2022/06/24 02:57:27;;;;;;;;;;;;;;;;;;1904741;28;7010;-63
2022/06/24 02:58:25;;;;;;;;;;;;;;;;;;1898454;28;7010;-63
2022/06/24 02:59:22;;;;;;;;;;;;;;;;;;1898970;28;7029;-63
2022/06/24 03:00:20;;;;;;;;;;;;;;;;;;1899957;28;7169;-63
2022/06/24 03:01:17;;;;;;;;;;;;;;;;;;1906115;28;7005;-62
2022/06/24 03:02:15;;;;;;;;;;;;;;;;;;1905818;28;8067;-63
2022/06/24 03:03:13;;;;;;;;;;;;;;;;;;1904134;28;7042;-63
2022/06/24 03:04:10;;;;;;;;;;;;;;;;;;1905328;28;7009;-64
2022/06/24 03:05:08;;;;;;;;;;;;;;;;;;1905797;28;7009;-63
2022/06/24 03:06:07;;;;;;;;;;;;;;;;;;1905454;28;7124;-63
2022/06/24 03:07:04;;;;;;;;;;;;;;;;;;1898802;28;7009;-63
2022/06/24 03:08:02;;;;;;;;;;;;;;;;;;1899860;28;7030;-63
2022/06/24 03:08:59;;;;;;;;;;;;;;;;;;1905567;28;7037;-63
2022/06/24 03:09:56;;;;;;;;;;;;;;;;;;1901428;28;9351;-63
2022/06/24 03:10:55;;;;;;;;;;;;;;;;;;1906056;28;7029;-63
2022/06/24 03:11:52;;;;;;;;;;;;;;;;;;1904655;28;7006;-63
2022/06/24 03:12:50;;;;;;;;;;;;;;;;;;1902703;28;7092;-63
2022/06/24 03:13:47;;;;;;;;;;;;;;;;;;1904484;28;7009;-63
2022/06/24 03:14:44;;;;;;;;;;;;;;;;;;1898889;28;7009;-63
2022/06/24 03:15:43;;;;;;;;;;;;;;;;;;1898180;28;7021;-63
2022/06/24 03:16:40;;;;;;;;;;;;;;;;;;1898174;28;8076;-63
2022/06/24 03:17:38;;;;;;;;;;;;;;;;;;1897948;28;7038;-63
2022/06/24 03:18:36;;;;;;;;;;;;;;;;;;1898493;28;7009;-63
2022/06/24 03:19:33;;;;;;;;;;;;;;;;;;1898357;28;8022;-63
2022/06/24 03:20:31;;;;;;;;;;;;;;;;;;1897995;28;7005;-63
2022/06/24 03:21:28;;;;;;;;;;;;;;;;;;1898542;28;7005;-63
2022/06/24 03:22:26;;;;;;;;;;;;;;;;;;1898286;28;7033;-63
2022/06/24 03:23:24;;;;;;;;;;;;;;;;;;1898360;28;7014;-63
2022/06/24 03:24:21;;;;;;;;;;;;;;;;;;1898010;28;7034;-63
2022/06/24 03:25:19;;;;;;;;;;;;;;;;;;1895486;28;7017;-63
2022/06/24 03:26:16;;;;;;;;;;;;;;;;;;1898437;28;7005;-63
2022/06/24 03:27:14;;;;;;;;;;;;;;;;;;1898395;28;7104;-63
2022/06/24 03:28:12;;;;;;;;;;;;;;;;;;1897581;28;7005;-63
2022/06/24 03:29:09;;;;;;;;;;;;;;;;;;1898071;28;7046;-63
2022/06/24 03:30:08;;;;;;;;;;;;;;;;;;1898000;28;7046;-63
2022/06/24 03:31:05;;;;;;;;;;;;;;;;;;1895465;28;7165;-64
2022/06/24 03:32:03;;;;;;;;;;;;;;;;;;1897830;28;7030;-63
2022/06/24 03:33:01;;;;;;;;;;;;;;;;;;1898303;28;7009;-63
2022/06/24 03:33:59;;;;;;;;;;;;;;;;;;1897958;28;7034;-63
2022/06/24 03:34:56;;;;;;;;;;;;;;;;;;1898267;28;7097;-63
2022/06/24 03:35:53;;;;;;;;;;;;;;;;;;1898074;28;7014;-63
2022/06/24 03:36:51;;;;;;;;;;;;;;;;;;1898131;28;7058;-63
2022/06/24 03:37:48;;;;;;;;;;;;;;;;;;1897832;28;7029;-63
2022/06/24 03:38:46;;;;;;;;;;;;;;;;;;1898079;28;7021;-63
2022/06/24 03:39:43;;;;;;;;;;;;;;;;;;1897982;28;7364;-63
2022/06/24 03:40:40;;;;;;;;;;;;;;;;;;1897777;28;8040;-63
2022/06/24 03:41:38;;;;;;;;;;;;;;;;;;1895283;28;7006;-63
2022/06/24 03:42:35;;;;;;;;;;;;;;;;;;1895659;28;7006;-62
2022/06/24 03:43:33;;;;;;;;;;;;;;;;;;1898040;28;7084;-64
2022/06/24 03:44:31;;;;;;;;;;;;;;;;;;1897773;28;7010;-63
2022/06/24 03:45:29;;;;;;;;;;;;;;;;;;1897870;28;7092;-63
2022/06/24 03:46:26;;;;;;;;;;;;;;;;;;1897891;28;7050;-63
2022/06/24 03:47:23;;;;;;;;;;;;;;;;;;1898239;28;8084;-64
2022/06/24 03:48:21;;;;;;;;;;;;;;;;;;1898271;28;8093;-63
2022/06/24 03:49:19;;;;;;;;;;;;;;;;;;1895922;28;7053;-63
2022/06/24 03:50:16;;;;;;;;;;;;;;;;;;1896759;28;7388;-63
2022/06/24 03:51:14;;;;;;;;;;;;;;;;;;1897696;28;7017;-63
2022/06/24 03:52:12;;;;;;;;;;;;;;;;;;1897591;28;7018;-63
2022/06/24 03:53:09;;;;;;;;;;;;;;;;;;1897755;28;7125;-63
2022/06/24 03:54:07;;;;;;;;;;;;;;;;;;1897951;28;7010;-63
2022/06/24 03:55:04;;;;;;;;;;;;;;;;;;1895947;28;7045;-63
2022/06/24 03:56:02;;;;;;;;;;;;;;;;;;1898254;28;7042;-62
2022/06/24 03:56:59;;;;;;;;;;;;;;;;;;1897936;28;7034;-63
2022/06/24 03:57:57;;;;;;;;;;;;;;;;;;1897624;28;7010;-63
2022/06/24 03:58:54;;;;;;;;;;;;;;;;;;1897306;28;7030;-63
2022/06/24 03:59:52;;;;;;;;;;;;;;;;;;1896434;28;7009;-63
2022/06/24 04:00:49;;;;;;;;;;;;;;;;;;1897795;28;7010;-63
2022/06/24 04:01:46;;;;;;;;;;;;;;;;;;1897821;28;7355;-63
2022/06/24 04:02:44;;;;;;;;;;;;;;;;;;1897909;28;7387;-63
2022/06/24 04:03:42;;;;;;;;;;;;;;;;;;1897584;28;7113;-62
2022/06/24 04:04:40;;;;;;;;;;;;;;;;;;1897874;28;7002;-63
2022/06/24 04:05:37;;;;;;;;;;;;;;;;;;1897279;28;7813;-63
2022/06/24 04:06:35;;;;;;;;;;;;;;;;;;1897558;28;7168;-63
2022/06/24 04:07:32;;;;;;;;;;;;;;;;;;1898087;28;7093;-63
2022/06/24 04:08:30;;;;;;;;;;;;;;;;;;1898020;28;8087;-63
2022/06/24 04:09:27;;;;;;;;;;;;;;;;;;1898193;28;7002;-63
2022/06/24 04:10:25;;;;;;;;;;;;;;;;;;1898048;28;7120;-63
2022/06/24 04:11:23;;;;;;;;;;;;;;;;;;1897719;28;7037;-63
2022/06/24 04:12:20;;;;;;;;;;;;;;;;;;1897508;28;7022;-63
2022/06/24 04:13:18;;;;;;;;;;;;;;;;;;1897617;28;8055;-64
2022/06/24 04:15:13;;;;;;;;;;;;;;;;;;1897394;28;7014;-63
2022/06/24 04:15:33;;;;;;;;;;;;;;;;;;1904085;28;7336;-63
2022/06/24 04:16:30;;;;;;;;;;;;;;;;;;1900502;28;7037;-63
2022/06/24 04:17:28;;;;;;;;;;;;;;;;;;1904928;28;7300;-63
2022/06/24 04:18:25;;;;;;;;;;;;;;;;;;1905501;28;7009;-63
2022/06/24 04:19:23;;;;;;;;;;;;;;;;;;1897624;28;7014;-63
2022/06/24 04:20:20;;;;;;;;;;;;;;;;;;1895980;28;7029;-64
2022/06/24 04:21:18;;;;;;;;;;;;;;;;;;1904711;28;7005;-63
2022/06/24 04:22:15;;;;;;;;;;;;;;;;;;1901668;28;7092;-63
2022/06/24 04:23:12;;;;;;;;;;;;;;;;;;1904493;28;7927;-63
2022/06/24 04:24:10;;;;;;;;;;;;;;;;;;1898027;28;7005;-63
2022/06/24 04:25:08;;;;;;;;;;;;;;;;;;1899169;28;8039;-63
2022/06/24 04:26:06;;;;;;;;;;;;;;;;;;1897397;28;8079;-63
2022/06/24 04:27:04;;;;;;;;;;;;;;;;;;1905038;28;7320;-63
2022/06/24 04:28:01;;;;;;;;;;;;;;;;;;1905273;28;7088;-63
2022/06/24 04:28:59;;;;;;;;;;;;;;;;;;1899864;28;7092;-63
2022/06/24 04:30:04;;;;;;;;;;;;;;;;;;1898341;28;7034;-63
2022/06/24 04:31:01;;;;;;;;;;;;;;;;;;1902054;28;7001;-63
2022/06/24 04:31:59;;;;;;;;;;;;;;;;;;1905013;28;7042;-64
2022/06/24 04:32:56;;;;;;;;;;;;;;;;;;1900836;28;7100;-63
2022/06/24 04:33:54;;;;;;;;;;;;;;;;;;1904999;28;7050;-63
2022/06/24 04:34:51;;;;;;;;;;;;;;;;;;1904681;28;7021;-63
2022/06/24 04:35:49;;;;;;;;;;;;;;;;;;1898068;28;7009;-64
2022/06/24 04:36:46;;;;;;;;;;;;;;;;;;1903514;28;7029;-63
2022/06/24 04:37:44;;;;;;;;;;;;;;;;;;1903704;28;7038;-63
2022/06/24 04:38:42;;;;;;;;;;;;;;;;;;1900082;28;7054;-63
2022/06/24 04:39:43;;;;;;;;;;;;;;;;;;1898522;28;7111;-63
2022/06/24 04:40:40;;;;;;;;;;;;;;;;;;1899721;28;7088;-63
2022/06/24 04:41:38;;;;;;;;;;;;;;;;;;1901150;28;7009;-63
2022/06/24 04:42:35;;;;;;;;;;;;;;;;;;1902744;28;7018;-64
2022/06/24 04:43:33;;;;;;;;;;;;;;;;;;1896903;28;7073;-63
2022/06/24 04:44:30;;;;;;;;;;;;;;;;;;1898597;28;7211;-63
2022/06/24 04:45:27;;;;;;;;;;;;;;;;;;1904113;28;7364;-63
2022/06/24 04:46:25;;;;;;;;;;;;;;;;;;1903302;28;7387;-63
2022/06/24 04:47:22;;;;;;;;;;;;;;;;;;1902396;28;7005;-62
2022/06/24 04:48:20;;;;;;;;;;;;;;;;;;1901066;28;7042;-65
2022/06/24 04:49:17;;;;;;;;;;;;;;;;;;1905111;28;7171;-62
2022/06/24 04:50:15;;;;;;;;;;;;;;;;;;1902321;28;7005;-63
2022/06/24 04:51:12;;;;;;;;;;;;;;;;;;1899359;28;7030;-63
2022/06/24 04:52:10;;;;;;;;;;;;;;;;;;1898012;28;7009;-63
2022/06/24 04:53:08;;;;;;;;;;;;;;;;;;1898932;28;7005;-63
2022/06/24 04:54:05;;;;;;;;;;;;;;;;;;1897405;28;8095;-63
2022/06/24 04:55:03;;;;;;;;;;;;;;;;;;1904189;28;7093;-63
2022/06/24 04:56:01;;;;;;;;;;;;;;;;;;1904378;28;7411;-63
2022/06/24 04:56:58;;;;;;;;;;;;;;;;;;1905271;28;7005;-63
2022/06/24 04:57:56;;;;;;;;;;;;;;;;;;1902183;28;7009;-63
2022/06/24 04:58:54;;;;;;;;;;;;;;;;;;1905309;28;7037;-63
2022/06/24 04:59:51;;;;;;;;;;;;;;;;;;1902078;28;7148;-63
2022/06/24 05:00:49;;;;;;;;;;;;;;;;;;1899320;28;7005;-63
2022/06/24 05:01:46;;;;;;;;;;;;;;;;;;1902209;28;7087;-63
2022/06/24 05:02:44;;;;;;;;;;;;;;;;;;1898593;28;7288;-63
2022/06/24 05:03:43;;;;;;;;;;;;;;;;;;1898197;28;7017;-63
2022/06/24 05:04:40;;;;;;;;;;;;;;;;;;1900890;28;7021;-63
2022/06/24 05:05:38;;;;;;;;;;;;;;;;;;1904938;28;7053;-63
2022/06/24 05:06:35;;;;;;;;;;;;;;;;;;1904079;28;7013;-63
2022/06/24 05:07:32;;;;;;;;;;;;;;;;;;1900100;28;7021;-63
2022/06/24 05:08:30;;;;;;;;;;;;;;;;;;1898288;28;7037;-63
2022/06/24 05:09:28;;;;;;;;;;;;;;;;;;1913841;28;7208;-63
2022/06/24 05:10:25;;;;;;;;;;;;;;;;;;1911498;28;7331;-64
2022/06/24 05:11:23;;;;;;;;;;;;;;;;;;1900592;28;7049;-63
2022/06/24 05:12:21;;;;;;;;;;;;;;;;;;1903235;28;7317;-63
2022/06/24 05:13:18;;;;;;;;;;;;;;;;;;1899581;28;8040;-63
2022/06/24 05:14:16;;;;;;;;;;;;;;;;;;1901714;28;7005;-63
2022/06/24 05:15:13;;;;;;;;;;;;;;;;;;1895981;28;8082;-63
2022/06/24 05:16:11;;;;;;;;;;;;;;;;;;1899852;28;7013;-63
2022/06/24 05:17:28;;;;;;;;;;;;;;;;;;1903713;28;7017;-63
2022/06/24 05:18:25;;;;;;;;;;;;;;;;;;1903762;28;7096;-63
2022/06/24 05:19:23;;;;;;;;;;;;;;;;;;1899256;28;7025;-63
2022/06/24 05:20:20;;;;;;;;;;;;;;;;;;1897464;28;7025;-63
2022/06/24 05:21:18;;;;;;;;;;;;;;;;;;1902317;28;7129;-63
2022/06/24 05:22:15;;;;;;;;;;;;;;;;;;1901421;28;7100;-63
2022/06/24 05:23:12;;;;;;;;;;;;;;;;;;1901207;28;7092;-63
2022/06/24 05:24:10;;;;;;;;;;;;;;;;;;1900700;28;7096;-63
2022/06/24 05:25:07;;;;;;;;;;;;;;;;;;1896271;28;8171;-63
2022/06/24 05:26:05;;;;;;;;;;;;;;;;;;1897906;28;7073;-63
2022/06/24 05:27:02;;;;;;;;;;;;;;;;;;1899519;28;7383;-63
2022/06/24 05:28:00;;;;;;;;;;;;;;;;;;1897653;28;7009;-63
2022/06/24 05:28:57;;;;;;;;;;;;;;;;;;1898935;28;7152;-63
2022/06/24 05:29:55;;;;;;;;;;;;;;;;;;1905181;28;7096;-64
2022/06/24 05:30:56;;;;;;;;;;;;;;;;;;1904560;28;7029;-63
2022/06/24 05:31:54;;;;;;;;;;;;;;;;;;1903852;28;7049;-63
2022/06/24 05:32:51;;;;;;;;;;;;;;;;;;1905059;28;7284;-63
2022/06/24 05:33:48;;;;;;;;;;;;;;;;;;1900542;28;7034;-63
2022/06/24 05:34:46;;;;;;;;;;;;;;;;;;1904828;28;7006;-63
2022/06/24 05:35:43;;;;;;;;;;;;;;;;;;1904858;28;7121;-63
2022/06/24 05:36:41;;;;;;;;;;;;;;;;;;1903154;28;7017;-63
2022/06/24 05:37:39;;;;;;;;;;;;;;;;;;1901745;28;7013;-63
2022/06/24 05:38:36;;;;;;;;;;;;;;;;;;1899922;28;7388;-63
2022/06/24 05:39:41;;;;;;;;;;;;;;;;;;1904182;28;9201;-63
2022/06/24 05:40:38;;;;;;;;;;;;;;;;;;1917709;28;7315;-64
2022/06/24 05:41:38;;;;;;;;;;;;;;;;;;1899136;28;7046;-63
2022/06/24 05:42:35;;;;;;;;;;;;;;;;;;1898868;28;7100;-63
2022/06/24 05:43:33;;;;;;;;;;;;;;;;;;1897327;28;7368;-63
2022/06/24 05:44:30;;;;;;;;;;;;;;;;;;1902130;28;8047;-64
2022/06/24 05:45:28;;;;;;;;;;;;;;;;;;1901104;28;7041;-63
2022/06/24 05:46:25;;;;;;;;;;;;;;;;;;1898093;28;7259;-63
2022/06/24 05:47:22;;;;;;;;;;;;;;;;;;1896221;28;7010;-63
2022/06/24 05:48:20;;;;;;;;;;;;;;;;;;1900491;28;7030;-63
2022/06/24 05:49:18;;;;;;;;;;;;;;;;;;1897708;28;7380;-63
2022/06/24 05:50:15;;;;;;;;;;;;;;;;;;1901036;28;7088;-63
2022/06/24 05:51:15;;;;;;;;;;;;;;;;;;1897773;28;7034;-63
2022/06/24 05:52:13;;;;;;;;;;;;;;;;;;1899822;28;7096;-63
2022/06/24 05:55:42;;;;;;;;;;;;;;;;;;1898511;28;8112;-63
2022/06/24 05:56:40;;;;;;;;;;;;;;;;;;1903656;28;7042;-63
2022/06/24 05:57:42;;;;;;;;;;;;;;;;;;1902803;28;7345;-63
2022/06/24 05:58:40;;;;;;;;;;;;;;;;;;1901227;28;7113;-63
2022/06/24 05:59:38;;;;;;;;;;;;;;;;;;1903867;28;7108;-63
2022/06/24 06:00:36;;;;;;;;;;;;;;;;;;1897698;28;7096;-63
2022/06/24 06:01:33;;;;;;;;;;;;;;;;;;1902120;28;7196;-63
2022/06/24 06:02:31;;;;;;;;;;;;;;;;;;1904834;28;7225;-63
2022/06/24 06:03:29;;;;;;;;;;;;;;;;;;1905321;28;7038;-64
2022/06/24 06:04:26;;;;;;;;;;;;;;;;;;1905116;28;7092;-63
2022/06/24 06:05:23;;;;;;;;;;;;;;;;;;1901822;28;7017;-63
2022/06/24 06:06:21;;;;;;;;;;;;;;;;;;1904778;28;7461;-63
2022/06/24 06:07:19;;;;;;;;;;;;;;;;;;1903698;28;7069;-63
2022/06/24 06:08:17;;;;;;;;;;;;;;;;;;1902331;28;7038;-64
2022/06/24 06:09:17;;;;;;;;;;;;;;;;;;1904278;28;7088;-64
2022/06/24 06:10:15;;;;;;;;;;;;;;;;;;1904887;28;7041;-64
2022/06/24 06:11:14;;;;;;;;;;;;;;;;;;1903507;28;7005;-63
2022/06/24 06:12:12;;;;;;;;;;;;;;;;;;1899178;28;7005;-63
2022/06/24 06:13:11;;;;;;;;;;;;;;;;;;1897504;28;7013;-63
2022/06/24 06:14:08;;;;;;;;;;;;;;;;;;1901368;28;7021;-63
2022/06/24 06:15:06;;;;;;;;;;;;;;;;;;1904113;28;7125;-63
2022/06/24 06:16:03;;;;;;;;;;;;;;;;;;1905043;28;7059;-63
2022/06/24 06:17:02;;;;;;;;;;;;;;;;;;1900506;28;8672;-63
2022/06/24 06:18:01;;;;;;;;;;;;;;;;;;1900716;28;7017;-63
2022/06/24 06:18:58;;;;;;;;;;;;;;;;;;1898153;28;7026;-63
2022/06/24 06:19:56;;;;;;;;;;;;;;;;;;1898962;28;8104;-63
2022/06/24 06:20:58;;;;;;;;;;;;;;;;;;1897626;28;7308;-64
2022/06/24 06:21:56;;;;;;;;;;;;;;;;;;1899507;28;7005;-64
2022/06/24 06:22:53;;;;;;;;;;;;;;;;;;1904197;28;7005;-63
2022/06/24 06:23:51;;;;;;;;;;;;;;;;;;1900888;28;7105;-64
2022/06/24 06:24:48;;;;;;;;;;;;;;;;;;1902793;28;7021;-63
2022/06/24 06:25:45;;;;;;;;;;;;;;;;;;1901619;28;7149;-64
2022/06/24 06:26:43;;;;;;;;;;;;;;;;;;1901256;28;7045;-64
2022/06/24 06:27:42;;;;;;;;;;;;;;;;;;1903742;28;7403;-64
2022/06/24 06:28:40;;;;;;;;;;;;;;;;;;1901360;28;8055;-64
2022/06/24 06:29:37;;;;;;;;;;;;;;;;;;1898707;28;7986;-64
2022/06/24 06:30:35;;;;;;;;;;;;;;;;;;1898569;28;7001;-64
2022/06/24 06:31:32;;;;;;;;;;;;;;;;;;1898453;28;7092;-64
2022/06/24 06:32:29;;;;;;;;;;;;;;;;;;1901950;28;7120;-64
2022/06/24 06:33:33;;;;;;;;;;;;;;;;;;1902431;28;7005;-64
2022/06/24 06:34:32;;;;;;;;;;;;;;;;;;1900685;28;7009;-64
2022/06/24 06:35:30;;;;;;;;;;;;;;;;;;1905918;28;7037;-64
2022/06/24 06:36:27;;;;;;;;;;;;;;;;;;1905315;28;7053;-64
2022/06/24 06:37:24;;;;;;;;;;;;;;;;;;1903183;28;7041;-64
2022/06/24 06:38:22;;;;;;;;;;;;;;;;;;1910954;28;7204;-64
2022/06/24 06:39:19;;;;;;;;;;;;;;;;;;1916106;28;7194;-63
2022/06/24 06:40:17;;;;;;;;;;;;;;;;;;1913077;28;7009;-63
2022/06/24 06:41:15;;;;;;;;;;;;;;;;;;1906914;28;8040;-64
2022/06/24 06:42:12;;;;;;;;;;;;;;;;;;1905329;28;7006;-63
2022/06/24 06:43:10;;;;;;;;;;;;;;;;;;1900638;28;8031;-65
2022/06/24 06:44:07;;;;;;;;;;;;;;;;;;1902045;28;7312;-63
2022/06/24 06:45:05;;;;;;;;;;;;;;;;;;1899056;28;7053;-64
2022/06/24 06:46:02;;;;;;;;;;;;;;;;;;1899386;28;7328;-64
2022/06/24 06:47:00;;;;;;;;;;;;;;;;;;1906561;28;7010;-63
2022/06/24 06:47:57;;;;;;;;;;;;;;;;;;1906250;28;7021;-63
2022/06/24 06:48:56;;;;;;;;;;;;;;;;;;1903371;28;7100;-64
2022/06/24 06:49:53;;;;;;;;;;;;;;;;;;1901277;28;7005;-64
2022/06/24 06:50:57;;;;;;;;;;;;;;;;;;1910132;28;7149;-64
2022/06/24 06:51:55;;;;;;;;;;;;;;;;;;1904835;28;7164;-64
2022/06/24 06:52:52;;;;;;;;;;;;;;;;;;1900069;28;7009;-64
2022/06/24 06:53:50;;;;;;;;;;;;;;;;;;1906034;28;7013;-64